Time;durP1;ratioP1;P1;durP2;ratioP2;P2;SDS_P1;SDS_P2;PMS_P1;PMS_P2;Temp;Humidity;BMP_temperature;BMP_pressure;BME280_temperature;BME280_humidity;BME280_pressure;Samples;Min_cycle;Max_cycle;Signal;HPM_P1;HPM_P2
2023/07/24 00:00:23;;;;;;;13.90;8.47;;;21.10;14.00;;;;;;5005867;28;20831;-67
2023/07/24 00:02:51;;;;;;;13.47;7.87;;;21.00;14.40;;;;;;5008010;28;20460;-67
2023/07/24 00:05:19;;;;;;;12.23;8.43;;;20.90;15.40;;;;;;5006694;28;20507;-67
2023/07/24 00:07:46;;;;;;;15.57;8.83;;;20.90;15.80;;;;;;5006422;28;20531;-68
2023/07/24 00:10:12;;;;;;;14.83;9.27;;;20.80;15.80;;;;;;5004923;28;20472;-67
2023/07/24 00:12:39;;;;;;;16.47;9.70;;;20.80;16.40;;;;;;5005762;28;20570;-67
2023/07/24 00:15:07;;;;;;;11.47;7.63;;;20.80;16.30;;;;;;5005761;28;20484;-67
2023/07/24 00:17:33;;;;;;;16.67;9.87;;;20.80;16.30;;;;;;5007911;28;21325;-67
2023/07/24 00:20:00;;;;;;;15.80;9.17;;;20.90;16.20;;;;;;5012964;28;20468;-67
2023/07/24 00:22:28;;;;;;;13.37;8.13;;;20.90;16.80;;;;;;5014531;28;20460;-67
2023/07/24 00:24:55;;;;;;;12.60;8.20;;;21.00;17.80;;;;;;5006641;28;20846;-68
2023/07/24 00:27:22;;;;;;;15.00;10.17;;;21.00;18.10;;;;;;5007526;28;20487;-67
2023/07/24 00:29:48;;;;;;;16.20;9.03;;;21.10;18.60;;;;;;5001828;28;20468;-68
2023/07/24 00:32:15;;;;;;;15.60;9.17;;;21.00;18.90;;;;;;5005711;28;20966;-68
2023/07/24 00:34:42;;;;;;;13.70;8.70;;;21.00;19.30;;;;;;5008657;28;20487;-67
2023/07/24 00:37:09;;;;;;;14.47;7.73;;;20.90;19.60;;;;;;5005662;28;20578;-68
2023/07/24 00:39:37;;;;;;;14.53;8.90;;;20.80;20.00;;;;;;4998355;28;20461;-68
2023/07/24 00:42:04;;;;;;;18.83;9.40;;;20.80;20.30;;;;;;5004655;28;20461;-68
2023/07/24 00:44:30;;;;;;;14.57;8.20;;;20.70;20.80;;;;;;5003122;28;20491;-68
2023/07/24 00:46:57;;;;;;;13.10;8.00;;;20.70;21.20;;;;;;5006223;28;20476;-69
2023/07/24 00:49:24;;;;;;;13.77;7.93;;;20.60;20.80;;;;;;5007457;28;20460;-68
2023/07/24 00:51:51;;;;;;;14.37;8.53;;;20.60;20.90;;;;;;5005991;28;20479;-67
2023/07/24 00:54:19;;;;;;;15.50;9.40;;;20.50;20.70;;;;;;5002036;28;20668;-67
2023/07/24 00:56:47;;;;;;;13.63;7.53;;;20.50;20.60;;;;;;5012815;28;20467;-68
2023/07/24 00:59:15;;;;;;;15.50;8.37;;;20.40;20.00;;;;;;5017717;28;20486;-67
2023/07/24 01:01:42;;;;;;;13.63;7.97;;;20.40;19.80;;;;;;5012445;28;20472;-67
2023/07/24 01:04:09;;;;;;;15.70;9.30;;;20.40;20.10;;;;;;5000339;28;20518;-67
2023/07/24 01:06:36;;;;;;;17.93;9.00;;;20.40;20.00;;;;;;5002184;28;20467;-67
2023/07/24 01:09:03;;;;;;;15.50;8.33;;;20.30;19.90;;;;;;5003342;28;20460;-67
2023/07/24 01:11:37;;;;;;;14.10;8.80;;;20.30;20.50;;;;;;5007872;28;20479;-68
2023/07/24 01:14:13;;;;;;;14.30;8.63;;;20.30;20.10;;;;;;4994950;28;20484;-67
2023/07/24 01:16:42;;;;;;;15.00;7.23;;;20.30;20.00;;;;;;5005592;28;20471;-68
2023/07/24 01:19:16;;;;;;;12.80;8.20;;;20.40;19.60;;;;;;5002923;28;20468;-67
2023/07/24 01:21:59;;;;;;;17.80;9.83;;;20.40;19.40;;;;;;5000800;28;20466;-68
2023/07/24 01:24:34;;;;;;;18.87;10.60;;;20.40;21.00;;;;;;5004891;28;20889;-67
2023/07/24 01:27:02;;;;;;;17.40;10.40;;;20.30;25.10;;;;;;5005794;28;20476;-69
2023/07/24 01:29:29;;;;;;;23.33;11.20;;;20.20;25.80;;;;;;5005052;28;20456;-68
2023/07/24 01:31:55;;;;;;;14.37;9.23;;;20.10;26.10;;;;;;5003637;28;20480;-68
2023/07/24 01:34:22;;;;;;;15.70;9.77;;;20.00;26.10;;;;;;5004974;28;21016;-68
2023/07/24 01:36:50;;;;;;;15.73;9.83;;;19.90;25.90;;;;;;5005064;28;20464;-67
2023/07/24 01:39:19;;;;;;;16.50;10.10;;;19.90;26.60;;;;;;5006065;28;20468;-68
2023/07/24 01:41:46;;;;;;;18.07;10.90;;;19.90;26.90;;;;;;5008839;28;20948;-67
2023/07/24 01:44:14;;;;;;;15.87;10.53;;;19.90;26.80;;;;;;5002964;28;20526;-67
2023/07/24 01:46:41;;;;;;;15.60;9.40;;;19.90;26.90;;;;;;5007619;28;20471;-67
2023/07/24 01:49:07;;;;;;;15.00;9.07;;;19.90;26.30;;;;;;5005757;28;20467;-69
2023/07/24 01:51:34;;;;;;;16.97;10.13;;;20.00;25.30;;;;;;5002089;28;21020;-68
2023/07/24 01:54:01;;;;;;;15.57;9.73;;;20.00;25.10;;;;;;5010210;28;20488;-68
2023/07/24 01:56:27;;;;;;;17.40;9.37;;;20.00;25.00;;;;;;5005278;28;20460;-69
2023/07/24 01:58:54;;;;;;;17.60;9.30;;;20.00;24.40;;;;;;5003446;28;20479;-67
2023/07/24 02:01:22;;;;;;;14.50;8.80;;;19.90;24.60;;;;;;5005074;28;20483;-67
2023/07/24 02:03:49;;;;;;;14.60;9.40;;;19.90;24.40;;;;;;5007321;28;20562;-68
2023/07/24 02:06:16;;;;;;;15.87;9.80;;;19.90;24.40;;;;;;5005678;28;20968;-67
2023/07/24 02:08:48;;;;;;;20.90;10.63;;;20.00;25.10;;;;;;5005493;28;20475;-68
2023/07/24 02:11:15;;;;;;;21.37;11.27;;;20.20;28.80;;;;;;5002996;28;20551;-67
2023/07/24 02:13:42;;;;;;;21.67;10.40;;;20.20;29.80;;;;;;5007705;28;20488;-67
2023/07/24 02:16:08;;;;;;;18.80;11.40;;;20.20;29.70;;;;;;5009920;28;20834;-67
2023/07/24 02:18:37;;;;;;;22.40;11.27;;;20.20;29.40;;;;;;5008655;28;20474;-67
2023/07/24 02:21:04;;;;;;;17.77;10.33;;;20.10;29.60;;;;;;5004668;28;20534;-68
2023/07/24 02:23:30;;;;;;;16.07;10.20;;;20.00;30.40;;;;;;5002660;28;20474;-67
2023/07/24 02:25:57;;;;;;;15.87;8.80;;;19.90;30.60;;;;;;5008103;28;20961;-68
2023/07/24 02:28:24;;;;;;;16.33;10.03;;;19.80;31.20;;;;;;5003680;28;20460;-67
2023/07/24 02:30:51;;;;;;;15.37;9.30;;;19.70;31.20;;;;;;5011360;28;20475;-67
2023/07/24 02:33:18;;;;;;;14.80;8.87;;;19.70;31.30;;;;;;5010944;28;20508;-67
2023/07/24 02:35:46;;;;;;;17.30;9.90;;;19.70;31.50;;;;;;5010579;28;20465;-68
2023/07/24 02:38:13;;;;;;;19.50;10.60;;;19.60;31.50;;;;;;5008719;28;20490;-68
2023/07/24 02:40:42;;;;;;;18.60;11.10;;;19.60;32.20;;;;;;5006289;28;20633;-68
2023/07/24 02:43:09;;;;;;;17.90;10.17;;;19.60;32.60;;;;;;5011837;28;20463;-68
2023/07/24 02:45:35;;;;;;;15.93;10.80;;;19.60;32.50;;;;;;5008431;28;20486;-68
2023/07/24 02:48:02;;;;;;;18.93;10.23;;;19.50;32.40;;;;;;5010319;28;20987;-69
2023/07/24 02:50:29;;;;;;;18.57;10.77;;;19.40;32.40;;;;;;5010451;28;20468;-68
2023/07/24 02:52:57;;;;;;;17.00;10.93;;;19.40;32.90;;;;;;5008842;28;20872;-68
2023/07/24 02:55:24;;;;;;;16.83;10.53;;;19.30;33.90;;;;;;5006695;28;20495;-68
2023/07/24 02:57:51;;;;;;;25.03;12.20;;;19.30;33.60;;;;;;5006922;28;20490;-67
2023/07/24 03:00:18;;;;;;;18.87;11.33;;;19.20;33.90;;;;;;5003714;28;20475;-68
2023/07/24 03:02:44;;;;;;;20.03;11.13;;;19.20;33.90;;;;;;5013576;28;20455;-67
2023/07/24 03:05:11;;;;;;;16.60;9.83;;;19.30;33.90;;;;;;5006070;28;20480;-67
2023/07/24 03:07:38;;;;;;;20.60;12.20;;;19.20;34.40;;;;;;5013651;28;20471;-68
2023/07/24 03:10:07;;;;;;;17.20;10.50;;;19.20;34.80;;;;;;5006002;28;20463;-66
2023/07/24 03:12:34;;;;;;;18.90;10.77;;;19.20;34.60;;;;;;5006682;28;20526;-68
2023/07/24 03:15:01;;;;;;;18.90;10.87;;;19.20;34.30;;;;;;5008178;28;20487;-68
2023/07/24 03:17:27;;;;;;;17.07;11.00;;;19.20;34.70;;;;;;5003301;28;20952;-67
2023/07/24 03:19:55;;;;;;;17.07;11.47;;;19.10;35.50;;;;;;5007234;28;20859;-67
2023/07/24 03:22:22;;;;;;;19.73;10.90;;;19.00;36.00;;;;;;5004920;28;20519;-73
2023/07/24 03:24:49;;;;;;;20.80;11.90;;;19.00;36.30;;;;;;5008822;28;20500;-73
2023/07/24 03:27:17;;;;;;;24.73;12.10;;;18.90;36.60;;;;;;5004219;28;20983;-70
2023/07/24 03:29:44;;;;;;;19.60;12.00;;;18.90;36.20;;;;;;5005018;28;20461;-71
2023/07/24 03:32:11;;;;;;;20.83;11.97;;;18.90;36.00;;;;;;5018139;23;20472;-71
2023/07/24 03:34:37;;;;;;;16.40;10.50;;;19.00;36.10;;;;;;4985787;28;21292;-70
2023/07/24 03:37:04;;;;;;;16.37;11.47;;;19.00;36.50;;;;;;4988408;28;20847;-68
2023/07/24 03:39:31;;;;;;;19.47;10.97;;;19.00;36.40;;;;;;4990030;28;20469;-68
2023/07/24 03:41:58;;;;;;;18.40;11.87;;;19.00;36.30;;;;;;4988578;28;20465;-68
2023/07/24 03:44:26;;;;;;;19.90;11.53;;;19.10;36.20;;;;;;4990257;28;20495;-68
2023/07/24 03:46:53;;;;;;;17.20;11.13;;;19.00;36.70;;;;;;4986562;28;20498;-67
2023/07/24 03:49:19;;;;;;;18.53;10.90;;;19.00;36.60;;;;;;4989407;28;20468;-66
2023/07/24 03:51:46;;;;;;;18.10;10.90;;;19.10;36.50;;;;;;4995752;28;20814;-66
2023/07/24 03:54:13;;;;;;;18.40;10.90;;;19.10;36.40;;;;;;4988528;28;20569;-67
2023/07/24 03:56:39;;;;;;;18.27;10.70;;;19.10;36.30;;;;;;4992423;28;20464;-66
2023/07/24 03:59:06;;;;;;;16.60;10.87;;;19.10;36.30;;;;;;4985963;28;20491;-66
2023/07/24 04:01:34;;;;;;;19.30;11.70;;;19.10;36.30;;;;;;4987266;28;20488;-66
2023/07/24 04:04:01;;;;;;;16.00;10.97;;;19.10;36.60;;;;;;4987534;28;20485;-66
2023/07/24 04:06:28;;;;;;;26.97;12.00;;;19.10;36.70;;;;;;4989138;28;20468;-66
2023/07/24 04:08:55;;;;;;;21.20;12.10;;;19.10;36.20;;;;;;4988740;28;20484;-66
2023/07/24 04:11:21;;;;;;;22.13;10.93;;;19.10;36.10;;;;;;4987198;28;20469;-66
2023/07/24 04:13:48;;;;;;;27.47;12.00;;;19.10;36.00;;;;;;4985588;28;20488;-67
2023/07/24 04:16:15;;;;;;;18.77;11.03;;;19.10;35.90;;;;;;4988779;28;20473;-66
2023/07/24 04:18:43;;;;;;;24.20;12.87;;;19.20;35.80;;;;;;4987829;28;20464;-66
2023/07/24 04:21:09;;;;;;;24.67;10.57;;;19.00;36.00;;;;;;4988000;28;20941;-66
2023/07/24 04:23:36;;;;;;;16.40;10.90;;;19.00;36.20;;;;;;4996414;28;20503;-66
2023/07/24 04:26:03;;;;;;;18.30;12.73;;;19.10;36.40;;;;;;4993118;28;20583;-66
2023/07/24 04:28:29;;;;;;;22.60;13.17;;;19.10;36.20;;;;;;4986799;28;20464;-66
2023/07/24 04:31:00;;;;;;;23.03;13.03;;;19.10;36.50;;;;;;4992723;28;21613;-67
2023/07/24 04:33:27;;;;;;;19.03;12.30;;;19.10;36.50;;;;;;5007223;28;20484;-66
2023/07/24 04:35:55;;;;;;;24.40;14.53;;;19.10;36.70;;;;;;5008650;28;20929;-66
2023/07/24 04:38:21;;;;;;;22.40;14.10;;;19.10;36.90;;;;;;5019541;28;20468;-67
2023/07/24 04:40:48;;;;;;;23.13;14.97;;;19.20;36.50;;;;;;5014552;28;20480;-66
2023/07/24 04:43:15;;;;;;;23.23;14.73;;;19.30;36.70;;;;;;5006834;28;20460;-66
2023/07/24 04:45:42;;;;;;;20.93;14.17;;;19.40;36.60;;;;;;5009685;28;20504;-66
2023/07/24 04:48:08;;;;;;;23.53;14.00;;;19.40;36.60;;;;;;5008486;28;20479;-66
2023/07/24 04:50:35;;;;;;;20.93;12.57;;;19.50;36.80;;;;;;5005519;28;20460;-66
2023/07/24 04:53:03;;;;;;;22.80;13.47;;;19.60;36.70;;;;;;5006503;28;20476;-66
2023/07/24 04:55:30;;;;;;;21.13;13.67;;;19.60;37.10;;;;;;5012462;28;20478;-66
2023/07/24 04:57:56;;;;;;;19.80;12.83;;;19.70;36.80;;;;;;5009246;28;20479;-67
2023/07/24 05:00:23;;;;;;;20.73;12.37;;;19.70;37.40;;;;;;5012600;28;21175;-66
2023/07/24 05:02:50;;;;;;;19.30;12.50;;;19.80;36.80;;;;;;5009739;28;20472;-66
2023/07/24 05:05:16;;;;;;;17.20;11.90;;;19.80;36.60;;;;;;5010900;28;20495;-66
2023/07/24 05:07:43;;;;;;;22.10;12.93;;;19.80;36.40;;;;;;5009279;28;20483;-66
2023/07/24 05:10:13;;;;;;;18.73;11.53;;;19.90;36.40;;;;;;5006747;28;20558;-66
2023/07/24 05:12:41;;;;;;;20.20;13.07;;;20.10;36.50;;;;;;5006247;28;20490;-66
2023/07/24 05:15:09;;;;;;;29.90;13.30;;;21.00;36.10;;;;;;5007652;28;20836;-67
2023/07/24 05:17:35;;;;;;;18.27;12.23;;;21.80;32.60;;;;;;5005173;28;20543;-66
2023/07/24 05:20:02;;;;;;;17.77;11.33;;;22.00;31.30;;;;;;5010294;28;20472;-66
2023/07/24 05:22:29;;;;;;;17.20;11.60;;;22.00;30.70;;;;;;5007873;28;20511;-67
2023/07/24 05:24:56;;;;;;;16.53;10.97;;;22.10;30.40;;;;;;5002758;28;21086;-66
2023/07/24 05:27:24;;;;;;;18.33;10.83;;;22.10;29.80;;;;;;5006542;28;20472;-66
2023/07/24 05:29:49;;;;;;;17.80;11.03;;;22.00;29.60;;;;;;5005513;28;20459;-66
2023/07/24 05:32:16;;;;;;;21.37;12.20;;;21.70;29.90;;;;;;5004835;28;20468;-66
2023/07/24 05:34:43;;;;;;;24.50;12.20;;;21.50;30.20;;;;;;5003882;28;20221;-66
2023/07/24 05:37:10;;;;;;;18.63;11.20;;;21.50;30.40;;;;;;5008001;28;20459;-66
2023/07/24 05:39:36;;;;;;;17.40;11.47;;;21.60;30.70;;;;;;5007647;28;20471;-66
2023/07/24 05:42:03;;;;;;;18.23;10.90;;;22.20;31.60;;;;;;5008566;28;20474;-66
2023/07/24 05:44:32;;;;;;;19.97;12.50;;;22.80;29.30;;;;;;5010775;28;20506;-66
2023/07/24 05:46:59;;;;;;;20.10;12.47;;;23.20;28.30;;;;;;5010134;28;20475;-66
2023/07/24 05:49:26;;;;;;;22.30;13.37;;;23.50;26.70;;;;;;5005387;28;20460;-66
2023/07/24 05:51:53;;;;;;;20.27;13.10;;;23.30;26.30;;;;;;5005447;28;20502;-66
2023/07/24 05:54:20;;;;;;;18.90;12.80;;;23.20;26.10;;;;;;5005411;28;20603;-66
2023/07/24 05:56:47;;;;;;;22.93;12.80;;;23.00;26.70;;;;;;5005074;28;20474;-67
2023/07/24 05:59:14;;;;;;;22.10;11.77;;;22.80;27.00;;;;;;5007024;28;20460;-66
2023/07/24 06:01:42;;;;;;;23.73;13.50;;;22.60;27.40;;;;;;5007179;28;20996;-66
2023/07/24 06:04:09;;;;;;;20.83;13.00;;;22.40;27.80;;;;;;5005728;28;20486;-67
2023/07/24 06:06:36;;;;;;;24.07;14.00;;;22.20;28.50;;;;;;5007921;28;20472;-66
2023/07/24 06:09:03;;;;;;;21.97;12.30;;;22.10;28.90;;;;;;5005455;28;20467;-66
2023/07/24 06:11:30;;;;;;;20.83;13.83;;;22.00;29.50;;;;;;5008450;28;20460;-66
2023/07/24 06:13:56;;;;;;;18.33;12.80;;;21.80;29.90;;;;;;5005964;28;20491;-66
2023/07/24 06:16:23;;;;;;;17.43;12.13;;;21.60;30.30;;;;;;5010385;28;20467;-67
2023/07/24 06:18:51;;;;;;;20.50;11.97;;;21.50;31.00;;;;;;5008045;28;20463;-66
2023/07/24 06:21:18;;;;;;;21.90;12.50;;;21.40;30.30;;;;;;5010774;28;21141;-66
2023/07/24 06:23:44;;;;;;;17.27;12.57;;;21.30;30.70;;;;;;5010980;28;20492;-66
2023/07/24 06:26:11;;;;;;;20.00;12.20;;;21.20;30.80;;;;;;5008388;28;20467;-66
2023/07/24 06:28:38;;;;;;;18.03;12.30;;;21.10;30.90;;;;;;5013630;28;20472;-66
2023/07/24 06:31:04;;;;;;;20.70;12.00;;;21.10;31.20;;;;;;5010423;28;20988;-66
2023/07/24 06:33:31;;;;;;;18.03;11.30;;;21.00;31.30;;;;;;5009436;28;20479;-66
2023/07/24 06:35:59;;;;;;;17.27;11.40;;;20.90;31.40;;;;;;5010036;28;20467;-66
2023/07/24 06:38:26;;;;;;;19.20;12.57;;;20.80;31.80;;;;;;5011709;28;20983;-66
2023/07/24 06:40:52;;;;;;;19.97;12.43;;;20.70;32.10;;;;;;5011056;28;20462;-66
2023/07/24 06:43:19;;;;;;;20.23;11.43;;;20.70;32.20;;;;;;5006811;28;20499;-66
2023/07/24 06:45:46;;;;;;;16.40;10.90;;;20.60;32.50;;;;;;5009725;28;20840;-66
2023/07/24 06:48:12;;;;;;;15.67;8.67;;;20.60;32.60;;;;;;5012680;28;20463;-66
2023/07/24 06:50:39;;;;;;;12.07;7.57;;;20.60;32.10;;;;;;5007462;28;20486;-66
2023/07/24 06:53:07;;;;;;;10.80;6.63;;;20.50;31.00;;;;;;5007163;28;20491;-66
2023/07/24 06:55:34;;;;;;;11.10;6.40;;;20.50;30.80;;;;;;5013101;28;20464;-66
2023/07/24 06:58:00;;;;;;;12.50;7.17;;;20.40;30.40;;;;;;5009113;28;20465;-66
2023/07/24 07:00:27;;;;;;;12.40;6.87;;;20.40;31.00;;;;;;5009265;28;20463;-66
2023/07/24 07:02:54;;;;;;;12.10;6.40;;;20.30;31.60;;;;;;4985958;28;20503;-66
2023/07/24 07:05:21;;;;;;;13.10;7.00;;;20.30;31.90;;;;;;4989473;28;20484;-66
2023/07/24 07:07:47;;;;;;;11.30;5.90;;;20.30;32.00;;;;;;4986559;28;20479;-67
2023/07/24 07:10:15;;;;;;;13.00;7.23;;;20.20;32.50;;;;;;4991384;28;20475;-66
2023/07/24 07:12:42;;;;;;;10.93;6.80;;;20.20;32.90;;;;;;4987672;28;20480;-67
2023/07/24 07:17:36;;;;;;;12.17;6.80;;;20.20;32.90;;;;;;4979823;28;20465;-64
2023/07/24 07:20:04;;;;;;;11.93;6.47;;;20.30;33.40;;;;;;4989167;28;20492;-64
2023/07/24 07:22:30;;;;;;;11.47;6.33;;;20.20;33.30;;;;;;4984942;28;20821;-64
2023/07/24 07:24:57;;;;;;;14.37;7.27;;;20.30;33.30;;;;;;4987577;28;20484;-64
2023/07/24 07:27:25;;;;;;;9.77;6.37;;;20.30;33.20;;;;;;4983141;28;20463;-64
2023/07/24 07:29:52;;;;;;;9.33;5.73;;;20.30;33.30;;;;;;4988392;28;20471;-64
2023/07/24 07:32:18;;;;;;;12.20;6.73;;;20.30;33.00;;;;;;5002846;28;20486;-65
2023/07/24 07:34:45;;;;;;;10.97;6.37;;;20.40;32.90;;;;;;5005953;28;20992;-65
2023/07/24 07:37:12;;;;;;;10.40;6.37;;;20.50;32.50;;;;;;5002906;28;20467;-63
2023/07/24 07:39:38;;;;;;;13.83;7.07;;;20.60;33.90;;;;;;4997303;28;20471;-64
2023/07/24 07:42:05;;;;;;;12.53;7.23;;;20.60;34.00;;;;;;5006530;28;20468;-64
2023/07/24 07:44:34;;;;;;;14.20;6.63;;;20.70;34.00;;;;;;5002412;28;20483;-64
2023/07/24 07:47:00;;;;;;;9.97;6.10;;;20.80;34.50;;;;;;5009142;28;20471;-64
2023/07/24 07:49:27;;;;;;;11.87;5.77;;;21.00;34.20;;;;;;5007191;28;20464;-64
2023/07/24 07:51:54;;;;;;;13.00;6.10;;;21.10;33.80;;;;;;5002636;28;20464;-65
2023/07/24 07:54:20;;;;;;;10.93;6.47;;;21.30;32.90;;;;;;5002806;28;20495;-64
2023/07/24 07:56:47;;;;;;;12.73;5.60;;;21.60;32.40;;;;;;5004649;28;20482;-64
2023/07/24 07:59:14;;;;;;;10.20;5.60;;;22.20;31.50;;;;;;5004250;28;20483;-64
2023/07/24 08:01:42;;;;;;;11.17;6.40;;;23.30;28.70;;;;;;5003980;28;20483;-64
2023/07/24 08:04:08;;;;;;;11.73;6.53;;;24.20;24.50;;;;;;5000687;28;20492;-64
2023/07/24 08:06:35;;;;;;;10.47;5.60;;;24.60;22.30;;;;;;5005297;28;20469;-64
2023/07/24 08:09:02;;;;;;;8.17;5.07;;;24.70;20.70;;;;;;5008207;28;20475;-65
2023/07/24 08:11:28;;;;;;;12.17;5.60;;;24.70;20.20;;;;;;5006639;28;20463;-64
2023/07/24 08:13:55;;;;;;;8.80;5.30;;;24.70;20.40;;;;;;5007697;28;20902;-65
2023/07/24 08:16:22;;;;;;;11.40;6.77;;;24.70;20.40;;;;;;5005532;28;20468;-64
2023/07/24 08:18:51;;;;;;;9.07;5.50;;;24.90;19.80;;;;;;5001538;28;20472;-64
2023/07/24 08:21:18;;;;;;;10.13;6.13;;;25.10;18.90;;;;;;5007338;28;20471;-64
2023/07/24 08:23:44;;;;;;;12.43;5.60;;;25.20;17.80;;;;;;5006986;28;20484;-64
2023/07/24 08:26:11;;;;;;;9.20;5.57;;;25.70;18.10;;;;;;5001709;28;20472;-65
2023/07/24 08:28:41;;;;;;;9.20;5.50;;;27.00;16.50;;;;;;5009038;28;20467;-65
2023/07/24 08:31:08;;;;;;;9.67;5.17;;;28.80;12.80;;;;;;5009225;28;20575;-65
2023/07/24 08:33:35;;;;;;;8.73;5.33;;;30.10;9.70;;;;;;5007798;28;20857;-65
2023/07/24 08:36:05;;;;;;;9.70;5.53;;;31.40;6.90;;;;;;5006924;28;20496;-65
2023/07/24 08:38:32;;;;;;;10.13;5.33;;;31.50;5.40;;;;;;5002307;28;20464;-64
2023/07/24 08:41:03;;;;;;;10.70;5.57;;;31.00;5.60;;;;;;4998961;28;20460;-68
2023/07/24 08:43:31;;;;;;;9.53;4.93;;;31.80;5.50;;;;;;4999290;28;20488;-64
2023/07/24 08:45:59;;;;;;;8.17;4.67;;;34.10;2.20;;;;;;5007502;28;20484;-66
2023/07/24 08:48:27;;;;;;;10.10;4.57;;;35.80;1.00;;;;;;4996487;28;20582;-66
2023/07/24 08:50:54;;;;;;;10.00;5.13;;;35.30;1.00;;;;;;5007424;28;20507;-66
2023/07/24 08:53:23;;;;;;;8.17;4.70;;;34.30;1.00;;;;;;5007669;28;20495;-66
2023/07/24 08:55:53;;;;;;;7.97;4.73;;;33.20;1.00;;;;;;5008141;28;20466;-66
2023/07/24 08:58:19;;;;;;;9.97;4.97;;;32.30;1.00;;;;;;5001357;28;20480;-66
2023/07/24 09:00:46;;;;;;;8.27;4.90;;;31.40;1.50;;;;;;5000122;28;20550;-65
2023/07/24 09:03:13;;;;;;;9.03;4.30;;;31.00;2.80;;;;;;5004351;28;20832;-66
2023/07/24 09:05:40;;;;;;;7.63;4.97;;;30.70;2.80;;;;;;5006178;28;20467;-65
2023/07/24 09:08:06;;;;;;;10.80;5.83;;;31.00;3.00;;;;;;5000941;28;20477;-65
2023/07/24 09:10:34;;;;;;;12.13;5.23;;;31.30;2.80;;;;;;5001006;28;20473;-65
2023/07/24 09:13:03;;;;;;;9.03;5.13;;;33.50;1.00;;;;;;5005539;28;20499;-68
2023/07/24 09:15:30;;;;;;;8.83;4.93;;;34.60;1.00;;;;;;5007997;28;21010;-65
2023/07/24 09:17:57;;;;;;;9.33;5.20;;;34.50;1.00;;;;;;5008445;28;20468;-65
2023/07/24 09:20:24;;;;;;;8.33;4.77;;;34.00;1.00;;;;;;5002725;28;21002;-65
2023/07/24 09:22:51;;;;;;;9.00;4.80;;;33.40;1.00;;;;;;5007119;28;20491;-65
2023/07/24 09:25:18;;;;;;;8.10;4.53;;;32.70;1.00;;;;;;5002452;28;20995;-63
2023/07/24 09:27:46;;;;;;;8.27;4.87;;;32.00;1.00;;;;;;5004339;28;20948;-64
2023/07/24 09:30:14;;;;;;;7.80;4.70;;;31.40;1.20;;;;;;5001710;28;20976;-64
2023/07/24 09:32:41;;;;;;;7.40;4.90;;;30.80;1.90;;;;;;5001111;28;20499;-64
2023/07/24 09:35:17;;;;;;;9.97;4.97;;;30.20;3.30;;;;;;5006097;28;20486;-64
2023/07/24 09:37:45;;;;;;;11.80;4.80;;;29.60;4.10;;;;;;5004608;28;20976;-64
2023/07/24 09:40:13;;;;;;;9.13;5.40;;;29.10;5.50;;;;;;5005834;28;20471;-64
2023/07/24 09:42:40;;;;;;;8.63;5.30;;;28.70;6.50;;;;;;5000922;28;20819;-64
2023/07/24 09:45:10;;;;;;;7.63;4.50;;;28.30;6.70;;;;;;5001991;28;20580;-63
2023/07/24 09:47:37;;;;;;;8.87;5.10;;;28.00;7.90;;;;;;5005983;28;20478;-63
2023/07/24 09:50:05;;;;;;;8.27;5.20;;;27.70;7.80;;;;;;5001886;28;20595;-64
2023/07/24 09:52:32;;;;;;;8.00;4.30;;;27.50;8.30;;;;;;5005911;28;20855;-66
2023/07/24 09:55:06;;;;;;;9.97;5.60;;;27.30;9.00;;;;;;4999480;28;20491;-64
2023/07/24 09:57:33;;;;;;;7.97;4.83;;;27.50;8.40;;;;;;4999241;28;20471;-64
2023/07/24 10:00:01;;;;;;;9.23;4.80;;;27.50;8.60;;;;;;4996957;28;20494;-63
2023/07/24 10:02:31;;;;;;;9.33;4.73;;;27.60;8.60;;;;;;4999600;28;20530;-63
2023/07/24 10:04:57;;;;;;;8.97;5.30;;;27.80;8.30;;;;;;5000932;28;20494;-63
2023/07/24 10:07:25;;;;;;;10.70;5.30;;;28.10;8.10;;;;;;5004057;28;20464;-63
2023/07/24 10:09:53;;;;;;;8.10;5.00;;;28.40;7.40;;;;;;5003334;28;20475;-63
2023/07/24 10:12:20;;;;;;;8.43;5.13;;;28.50;7.30;;;;;;5005580;28;20948;-63
2023/07/24 10:14:47;;;;;;;8.47;5.30;;;28.50;7.70;;;;;;5002066;28;20488;-63
2023/07/24 10:17:14;;;;;;;8.77;5.00;;;28.40;7.50;;;;;;4949398;28;1524757;-64
2023/07/24 10:19:43;;;;;;;7.90;4.60;;;28.40;7.80;;;;;;5008908;28;20211;-64
2023/07/24 10:22:10;;;;;;;9.07;4.67;;;28.70;7.60;;;;;;4997613;28;20519;-64
2023/07/24 10:24:37;;;;;;;8.37;4.60;;;29.00;6.70;;;;;;5003790;28;20472;-64
2023/07/24 10:27:04;;;;;;;10.30;5.13;;;29.40;5.70;;;;;;5002692;28;20486;-63
2023/07/24 10:29:36;;;;;;;8.33;4.67;;;29.70;5.10;;;;;;5003374;28;20463;-63
2023/07/24 10:32:03;;;;;;;9.60;4.90;;;29.90;4.20;;;;;;5004390;28;20542;-64
2023/07/24 10:34:38;;;;;;;8.40;5.33;;;30.30;4.00;;;;;;5000182;28;20488;-63
2023/07/24 10:37:08;;;;;;;9.47;5.20;;;30.40;2.70;;;;;;5001668;28;20891;-63
2023/07/24 10:39:40;;;;;;;8.30;4.70;;;30.40;3.10;;;;;;4999501;28;20492;-63
2023/07/24 10:42:08;;;;;;;12.00;5.50;;;30.70;4.30;;;;;;5001289;28;20856;-64
2023/07/24 10:44:35;;;;;;;8.20;4.50;;;30.80;3.00;;;;;;5000058;28;20504;-63
2023/07/24 10:47:02;;;;;;;9.00;5.10;;;30.70;2.10;;;;;;5009324;28;20463;-62
2023/07/24 10:49:29;;;;;;;10.20;5.43;;;30.40;2.80;;;;;;5008688;28;20467;-62
2023/07/24 10:51:57;;;;;;;7.73;4.33;;;30.10;3.20;;;;;;5004402;28;20463;-63
2023/07/24 10:54:25;;;;;;;8.60;4.63;;;30.00;3.30;;;;;;5007661;28;20483;-64
2023/07/24 10:56:59;;;;;;;9.43;5.00;;;30.10;4.30;;;;;;5002259;28;20482;-63
2023/07/24 10:59:36;;;;;;;8.13;4.70;;;30.20;4.50;;;;;;5006396;28;20939;-64
2023/07/24 11:02:04;;;;;;;7.30;4.80;;;30.20;4.70;;;;;;5002855;28;20852;-64
2023/07/24 11:04:33;;;;;;;7.50;4.87;;;30.00;3.70;;;;;;5001850;28;20873;-62
2023/07/24 11:07:01;;;;;;;9.57;5.50;;;29.50;4.00;;;;;;5003211;28;20482;-62
2023/07/24 11:09:37;;;;;;;7.77;4.53;;;29.10;5.30;;;;;;5007438;28;20839;-62
2023/07/24 11:12:14;;;;;;;9.60;5.37;;;28.60;5.80;;;;;;5006325;28;20569;-62
2023/07/24 11:14:49;;;;;;;8.20;5.10;;;28.00;6.80;;;;;;4999543;28;20484;-62
2023/07/24 11:17:16;;;;;;;11.87;5.83;;;27.50;7.80;;;;;;5003835;28;20467;-62
2023/07/24 11:19:42;;;;;;;10.50;6.27;;;27.00;10.20;;;;;;5004651;28;20478;-64
2023/07/24 11:22:09;;;;;;;9.10;4.83;;;26.50;11.30;;;;;;5009284;28;20480;-62
2023/07/24 11:24:47;;;;;;;8.97;5.13;;;26.10;12.20;;;;;;5003461;28;20488;-62
2023/07/24 11:27:15;;;;;;;13.17;7.40;;;25.50;13.10;;;;;;5002014;28;20471;-64
2023/07/24 11:29:42;;;;;;;11.23;5.93;;;25.00;14.50;;;;;;5010005;28;20547;-64
2023/07/24 11:32:09;;;;;;;11.70;5.90;;;24.60;15.50;;;;;;5004494;28;20490;-64
2023/07/24 11:34:36;;;;;;;10.97;5.80;;;24.20;15.90;;;;;;5001622;28;20488;-64
2023/07/24 11:37:04;;;;;;;9.83;6.63;;;23.90;17.80;;;;;;5003709;28;20814;-65
2023/07/24 11:39:30;;;;;;;12.07;6.23;;;23.60;20.00;;;;;;5003826;28;20499;-65
2023/07/24 11:42:01;;;;;;;10.50;6.53;;;23.40;19.50;;;;;;5004438;28;20467;-65
2023/07/24 11:44:29;;;;;;;9.53;5.63;;;23.30;20.20;;;;;;5004232;28;20474;-65
2023/07/24 11:47:02;;;;;;;12.30;5.77;;;23.10;20.30;;;;;;4993118;28;21027;-65
2023/07/24 11:49:30;;;;;;;9.27;5.37;;;22.90;22.00;;;;;;4998881;28;20981;-65
2023/07/24 11:52:01;;;;;;;10.63;5.40;;;22.80;23.60;;;;;;5003464;28;20464;-64
2023/07/24 11:54:28;;;;;;;11.13;5.63;;;22.60;23.60;;;;;;5003633;28;20511;-65
2023/07/24 11:56:54;;;;;;;12.00;5.67;;;22.60;23.70;;;;;;5006454;28;20468;-64
2023/07/24 11:59:22;;;;;;;11.90;6.07;;;22.50;23.60;;;;;;5006238;28;20479;-64
2023/07/24 12:01:49;;;;;;;12.27;5.53;;;22.40;23.60;;;;;;5002859;28;20480;-65
2023/07/24 12:04:17;;;;;;;9.57;5.50;;;22.30;23.70;;;;;;5005647;28;20491;-65
2023/07/24 12:06:47;;;;;;;10.57;6.30;;;22.20;24.50;;;;;;5002831;28;21003;-65
2023/07/24 12:09:14;;;;;;;9.90;5.97;;;22.10;25.40;;;;;;5003643;28;20456;-65
2023/07/24 12:11:42;;;;;;;10.30;5.20;;;22.10;25.70;;;;;;5003238;28;21287;-65
2023/07/24 12:14:08;;;;;;;10.30;5.83;;;22.10;25.80;;;;;;5003357;28;20577;-65
2023/07/24 12:16:37;;;;;;;10.70;5.30;;;22.10;25.40;;;;;;5005717;28;20475;-65
2023/07/24 12:19:04;;;;;;;10.43;5.63;;;22.10;25.90;;;;;;4999092;28;20475;-65
2023/07/24 12:21:30;;;;;;;10.37;5.27;;;22.00;26.90;;;;;;5005049;28;20952;-65
2023/07/24 12:23:57;;;;;;;11.53;5.27;;;22.00;27.50;;;;;;4997611;28;20533;-65
2023/07/24 12:26:25;;;;;;;10.27;5.60;;;21.90;27.70;;;;;;5002925;28;20472;-65
2023/07/24 12:28:51;;;;;;;10.93;6.97;;;22.00;27.90;;;;;;5000693;28;20467;-65
2023/07/24 12:31:18;;;;;;;9.63;5.77;;;22.00;28.40;;;;;;4999050;28;20490;-65
2023/07/24 12:33:46;;;;;;;10.50;6.30;;;22.00;29.50;;;;;;5000780;28;20891;-65
2023/07/24 12:36:13;;;;;;;12.17;5.70;;;22.00;30.10;;;;;;5001200;28;20479;-66
2023/07/24 12:38:40;;;;;;;10.87;5.83;;;22.00;30.00;;;;;;4996176;28;20471;-64
2023/07/24 12:41:06;;;;;;;9.67;6.00;;;22.00;30.20;;;;;;4999019;28;20475;-64